Latest Weather Observations for Fitzroy Crossing

IDW60801

Issued at 6:34 pm WST Monday 20 February 2017 (issued every 30 minutes, with the page automatically refreshed every 10 minutes)

About weather observations | Map of weather stations | Latest weather observations for WA | Other Formats
Station Details ID: 003093 Name: FITZROY CROSSING AERO Lat: -18.18 Lon: 125.56 Height: 114.5 m
Data from the previous 72 hours. | See also: Recent months at Fitzroy Crossing
Date/Time
WST
Temp
°C
App
Temp
°C
Dew
Point
°C
Rel
Hum
%
Delta-T
°C
Wind Press
QNH
hPa
Press
MSL
hPa
Rain since
9am
mm
Dir  Spd
km/h
Gust
km/h
Spd
kts
Gust
kts
20/06:30pm 31.6 37.1 23.4 61 5.7 CALM 0 6 0 3 1007.5 1006.6 0.0
20/06:00pm 33.0 36.5 22.1 52 7.5 S 7 9 4 5 1007.1 1006.2 0.0
20/05:30pm 35.0 39.2 20.9 43 9.5 CALM 0 0 0 0 1006.9 1006.0 0.0
20/05:00pm 34.9 38.6 20.8 43 9.6 SSE 2 7 1 4 1006.7 1005.8 0.0
20/04:30pm 36.1 39.0 19.1 36 11.3 SSE 2 9 1 5 1006.5 1005.6 0.0
20/04:00pm 36.2 39.7 19.6 37 11.1 CALM 0 0 0 0 1006.3 1005.4 0.0
20/03:30pm 36.1 39.0 19.1 36 11.3 ENE 2 9 1 5 1006.5 1005.6 0.0
20/03:00pm 36.2 40.3 21.6 42 10.0 NNE 2 9 1 5 1006.5 1005.6 0.0
20/02:30pm 36.2 40.0 22.4 45 9.6 WNW 6 11 3 6 1006.7 1005.8 0.0
20/02:00pm 35.3 38.7 21.6 45 9.4 WNW 6 11 3 6 1006.9 1006.0 0.0
20/01:30pm 35.1 37.6 21.7 45 9.2 NW 11 15 6 8 1007.1 1006.2 0.0
20/01:00pm 35.3 37.9 21.9 45 9.2 NW 11 13 6 7 1007.5 1006.6 0.0
20/12:30pm 35.0 38.8 21.6 45 9.2 E 4 11 2 6 1008.1 1007.2 0.0
20/12:00pm 34.5 37.1 20.1 43 9.7 E 6 11 3 6 1008.7 1007.8 0.0
20/11:30am 34.4 38.3 22.5 50 8.2 E 6 11 3 6 1009.1 1008.2 0.0
20/11:00am 33.1 35.4 20.6 47 8.4 SSE 9 13 5 7 1009.5 1008.6 0.0
20/10:30am 32.0 35.5 21.8 54 6.9 S 6 9 3 5 1009.8 1008.9 0.0
20/10:00am 30.6 34.9 21.9 59 5.9 SW 2 11 1 6 1010.3 1009.4 0.0
20/09:30am 29.9 33.7 21.6 61 5.6 SSW 4 9 2 5 1010.7 1009.8 0.0
20/09:00am 29.6 32.8 22.3 65 5.0 WSW 9 11 5 6 1010.9 1010.0 5.2
20/08:30am 28.0 31.1 22.2 70 3.9 WSW 9 13 5 7 1011.1 1010.2 5.2
20/08:00am 27.0 29.8 23.0 79 2.7 WNW 13 17 7 9 1011.0 1010.1 5.2
20/07:30am 26.6 29.8 23.1 81 2.4 WNW 11 13 6 7 1011.0 1010.1 5.2
20/07:00am 26.0 30.0 23.1 84 2.0 WNW 7 9 4 5 1010.9 1010.0 5.2
20/06:30am 25.6 29.6 22.7 84 2.0 WSW 6 7 3 4 1010.6 1009.7 5.2
20/06:00am 25.6 28.8 22.3 82 2.2 N 9 11 5 6 1010.2 1009.3 5.2
20/05:30am 25.4 28.7 22.5 84 2.0 NNW 9 13 5 7 1009.9 1009.0 5.2
20/05:00am 25.3 28.8 22.8 86 1.7 WNW 9 11 5 6 1009.4 1008.5 5.2
20/04:30am 25.2 29.1 22.5 85 1.8 N 6 7 3 4 1009.5 1008.6 5.2
20/04:00am 25.1 27.5 22.2 84 2.0 NW 13 17 7 9 1009.1 1008.2 5.2
20/03:30am 25.2 27.5 22.1 83 2.1 N 13 17 7 9 1008.4 1007.5 5.2
20/03:00am 25.2 30.6 23.3 89 1.3 CALM 0 0 0 0 1008.4 1007.5 5.2
20/02:30am 25.3 30.7 23.2 88 1.4 CALM 0 0 0 0 1008.8 1007.9 5.2
20/02:00am 25.2 29.0 22.7 86 1.7 ENE 7 7 4 4 1008.5 1007.6 5.2
20/01:30am 25.1 28.3 22.4 85 1.8 N 9 17 5 9 1008.7 1007.8 5.2
20/01:00am 25.1 29.2 23.0 88 1.4 N 6 9 3 5 1008.2 1007.3 5.2
20/12:30am 25.2 30.3 22.7 86 1.7 CALM 0 0 0 0 1008.6 1007.7 5.2
20/12:00am 25.1 29.3 22.4 85 1.8 W 4 9 2 5 1009.0 1008.1 5.2
 
Date/Time
WST
Temp
°C
App
Temp
°C
Dew
Point
°C
Rel
Hum
%
Delta-T
°C
Wind Press
QNH
hPa
Press
MSL
hPa
Rain since
9am
mm
Dir  Spd
km/h
Gust
km/h
Spd
kts
Gust
kts
19/11:30pm 24.8 27.6 22.3 86 1.7 SW 11 15 6 8 1009.5 1008.6 5.2
19/11:00pm 24.6 26.8 21.9 85 1.8 SSW 13 20 7 11 1010.7 1009.8 5.2
19/10:30pm 24.3 25.2 21.6 85 1.8 NNE 19 28 10 15 1009.9 1009.0 5.2
19/10:00pm 24.8 22.9 22.1 85 1.8 N 35 43 19 23 1009.3 1008.4 5.0
19/09:56pm 24.7 23.7 22.0 85 1.8 N 30 43 16 23 1009.3 1008.4 5.0
19/09:30pm 24.6 24.5 21.5 83 2.1 ENE 24 33 13 18 1011.1 1010.2 3.4
19/09:00pm 25.9 26.6 21.6 77 2.9 E 20 28 11 15 1010.8 1009.9 3.4
19/08:30pm 25.9 28.8 21.8 78 2.7 NW 9 15 5 8 1009.4 1008.5 3.4
19/08:00pm 25.6 25.6 21.7 79 2.6 WNW 24 32 13 17 1009.0 1008.1 3.4
19/07:30pm 26.4 26.1 22.5 79 2.6 NW 28 35 15 19 1008.8 1007.9 3.4
19/07:00pm 26.5 25.7 21.7 75 3.2 NNW 28 37 15 20 1008.7 1007.8 3.4
19/06:30pm 26.0 24.1 22.1 79 2.6 ENE 35 59 19 32 1007.3 1006.4 3.4
19/06:23pm 27.2 26.1 21.0 69 4.1 ENE 28 59 15 32 1007.4 1006.5 2.4
19/06:08pm 30.7 29.7 21.2 57 6.4 E 28 44 15 24 1007.0 1006.1 0.0
19/06:00pm 32.8 35.5 22.9 56 6.9 ENE 13 20 7 11 1007.3 1006.4 0.0
19/05:30pm 35.3 38.8 23.6 50 8.2 S 11 13 6 7 1006.2 1005.3 0.0
19/05:00pm 35.7 38.9 23.7 50 8.4 SSE 13 17 7 9 1006.3 1005.4 0.0
19/04:30pm 36.3 39.8 23.5 47 9.0 S 11 15 6 8 1005.5 1004.6 0.0
19/04:00pm 36.7 39.9 22.4 43 9.9 NNW 9 13 5 7 1005.0 1004.1 0.0
19/03:30pm 36.6 40.6 23.1 45 9.4 NW 7 13 4 7 1005.4 1004.5 0.0
19/03:00pm 36.7 40.9 23.2 46 9.5 NNW 6 11 3 6 1005.7 1004.8 0.0
19/02:30pm 36.1 39.7 22.3 45 9.5 N 7 11 4 6 1006.2 1005.3 0.0
19/02:00pm 36.0 39.9 23.6 48 8.7 E 9 13 5 7 1006.6 1005.7 0.0
19/01:30pm 35.5 39.3 23.5 50 8.4 E 9 13 5 7 1006.8 1005.9 0.0
19/01:00pm 35.3 39.4 23.3 50 8.4 ESE 7 15 4 8 1007.0 1006.1 0.0
19/12:30pm 35.2 39.3 22.9 49 8.5 W 6 9 3 5 1007.3 1006.4 0.0
19/12:00pm 34.3 38.2 23.0 51 7.9 NNW 7 11 4 6 1007.9 1007.0 0.0
19/11:30am 33.7 37.7 22.8 53 7.5 NW 6 11 3 6 1008.3 1007.4 0.0
19/11:00am 33.6 37.9 23.3 55 7.2 NNW 6 9 3 5 1008.7 1007.8 0.0
19/10:30am 32.7 36.8 23.3 57 6.5 NNW 7 11 4 6 1009.3 1008.4 0.0
19/10:00am 31.4 35.5 23.0 61 5.8 N 6 9 3 5 1009.7 1008.8 0.0
19/09:30am 32.2 35.9 23.2 59 6.2 WNW 9 11 5 6 1009.9 1009.0 0.0
19/09:00am 30.4 34.1 23.3 66 4.9 WNW 9 13 5 7 1009.9 1009.0 0.0
19/08:30am 30.2 33.9 23.9 69 4.4 WNW 11 17 6 9 1010.0 1009.1 0.0
19/08:00am 29.1 31.7 23.3 71 4.0 WSW 15 20 8 11 1009.9 1009.0 0.0
19/07:30am 28.6 31.3 23.5 74 3.5 W 15 19 8 10 1009.9 1009.0 0.0
19/07:00am 27.6 30.4 23.6 79 2.8 W 15 20 8 11 1009.7 1008.8 0.0
19/06:30am 27.4 31.0 24.3 83 2.2 WNW 13 17 7 9 1009.9 1009.0 0.0
19/06:00am 26.7 31.5 24.5 88 1.5 NW 7 11 4 6 1009.7 1008.8 0.0
19/05:30am 26.7 31.1 24.5 88 1.5 WNW 9 13 5 7 1009.4 1008.5 0.0
19/05:00am 27.0 30.7 24.6 87 1.7 WNW 13 19 7 10 1009.0 1008.1 0.0
19/04:30am 27.2 30.2 24.7 86 1.7 WNW 17 22 9 12 1008.6 1007.7 0.0
19/04:00am 27.4 31.2 24.7 85 1.9 WNW 13 15 7 8 1008.6 1007.7 0.0
19/03:30am 27.7 30.7 24.7 84 2.1 WNW 17 20 9 11 1008.1 1007.2 0.0
19/03:00am 27.9 30.9 24.7 83 2.2 WNW 17 20 9 11 1008.0 1007.1 0.0
19/02:30am 27.9 30.2 24.1 80 2.6 WNW 19 22 10 12 1007.8 1006.9 0.0
19/02:00am 28.2 30.2 23.6 76 3.2 WNW 19 24 10 13 1007.9 1007.0 0.0
19/01:30am 28.6 30.8 24.2 77 3.1 WNW 20 24 11 13 1008.0 1007.1 0.0
19/01:00am 28.6 31.5 23.9 75 3.3 W 15 19 8 10 1008.3 1007.4 0.0
19/12:30am 28.7 31.7 24.0 76 3.3 WNW 15 19 8 10 1008.6 1007.7 0.0
19/12:00am 28.7 30.9 24.0 76 3.3 WNW 19 22 10 12 1008.6 1007.7 0.0
 
Date/Time
WST
Temp
°C
App
Temp
°C
Dew
Point
°C
Rel
Hum
%
Delta-T
°C
Wind Press
QNH
hPa
Press
MSL
hPa
Rain since
9am
mm
Dir  Spd
km/h
Gust
km/h
Spd
kts
Gust
kts
18/11:30pm 28.9 30.9 24.0 75 3.4 NW 20 26 11 14 1008.6 1007.7 0.0
18/11:00pm 29.1 31.7 24.0 74 3.5 NW 17 20 9 11 1008.6 1007.7 0.0
18/10:30pm 29.1 31.8 24.2 75 3.4 NW 17 20 9 11 1008.8 1007.9 0.0
18/10:00pm 29.3 32.5 24.4 75 3.4 NW 15 20 8 11 1009.0 1008.1 0.0
18/09:30pm 29.4 32.3 24.5 75 3.4 NW 17 22 9 12 1009.1 1008.2 0.0
18/09:00pm 29.9 32.6 24.8 74 3.6 NW 19 24 10 13 1009.1 1008.2 0.0
18/08:30pm 30.2 33.3 24.8 73 3.8 NW 17 20 9 11 1008.9 1008.0 0.0
18/08:00pm 30.9 33.8 24.5 68 4.5 NW 17 19 9 10 1008.7 1007.8 0.0
18/07:30pm 31.6 35.5 24.2 65 5.2 WNW 11 17 6 9 1008.4 1007.5 0.0
18/07:00pm 32.0 35.6 23.8 62 5.7 NW 11 13 6 7 1008.2 1007.3 0.0
18/06:30pm 32.5 36.8 24.3 62 5.8 WNW 9 11 5 6 1008.0 1007.1 0.0
18/06:00pm 33.8 37.8 23.8 56 7.0 WNW 9 13 5 7 1008.1 1007.2 0.0
18/05:30pm 35.0 37.6 22.7 49 8.5 W 13 17 7 9 1007.7 1006.8 0.0
18/05:00pm 35.9 38.0 22.5 46 9.3 WSW 15 19 8 10 1007.6 1006.7 0.0
18/04:30pm 36.5 39.8 22.6 44 9.7 WSW 9 11 5 6 1007.8 1006.9 0.0
18/04:00pm 36.1 38.5 23.0 46 9.1 SW 15 19 8 10 1008.1 1007.2 0.0
18/03:30pm 36.3 39.2 23.2 47 9.2 WSW 13 17 7 9 1008.1 1007.2 0.0
18/03:00pm 36.4 39.1 22.9 45 9.4 SW 13 20 7 11 1008.3 1007.4 0.0
18/02:30pm 36.0 40.3 24.3 51 8.3 SSW 9 17 5 9 1008.6 1007.7 0.0
18/02:00pm 35.5 38.4 23.8 50 8.2 SW 15 20 8 11 1008.9 1008.0 0.0
18/01:30pm 35.9 39.0 22.8 46 9.1 WSW 11 20 6 11 1009.2 1008.3 0.0
18/01:00pm 35.3 37.5 22.6 47 8.8 WSW 15 24 8 13 1009.4 1008.5 0.0
18/12:30pm 34.8 38.1 23.2 51 8.1 WNW 11 20 6 11 1009.9 1009.0 0.0
18/12:00pm 33.9 36.9 22.7 52 7.7 NW 11 17 6 9 1010.5 1009.6 0.0
18/11:30am 33.8 36.5 22.9 53 7.5 W 13 19 7 10 1011.0 1010.1 0.0
18/11:00am 33.4 37.4 23.7 56 6.8 W 9 17 5 9 1011.4 1010.5 0.0
18/10:30am 32.4 35.9 22.8 57 6.6 W 9 17 5 9 1011.9 1011.0 0.0
18/10:00am 31.7 35.0 23.2 60 5.9 WSW 11 15 6 8 1012.3 1011.4 0.0
18/09:30am 30.8 33.7 23.2 64 5.2 WSW 13 20 7 11 1012.4 1011.5 0.0
18/09:00am 29.5 31.8 22.7 67 4.7 WSW 15 20 8 11 1012.7 1011.8 0.0
18/08:30am 29.5 32.4 23.2 69 4.3 WSW 13 17 7 9 1012.7 1011.8 0.0
18/08:00am 28.3 30.3 23.0 73 3.6 W 17 22 9 12 1012.8 1012.0 0.0
18/07:30am 27.5 29.7 23.3 78 2.9 W 17 26 9 14 1012.4 1011.5 0.0
18/07:00am 26.7 30.0 23.8 84 2.0 W 13 19 7 10 1012.4 1011.5 0.0
18/06:30am 26.2 29.3 23.5 85 1.9 WNW 13 17 7 9 1012.2 1011.3 0.0
18/06:00am 25.5 28.9 23.4 88 1.4 WNW 11 15 6 8 1011.8 1010.9 0.0
18/05:30am 25.4 28.9 23.5 89 1.3 WNW 11 13 6 7 1011.3 1010.4 0.0
18/05:00am 25.4 28.8 23.3 88 1.4 W 11 15 6 8 1011.1 1010.2 0.0
18/04:30am 25.5 29.3 23.4 88 1.4 W 9 15 5 8 1010.7 1009.8 0.0
18/04:00am 25.6 29.0 23.3 87 1.6 W 11 13 6 7 1010.6 1009.7 0.0
18/03:30am 25.8 27.9 23.1 85 1.8 WNW 17 20 9 11 1010.2 1009.3 0.0
18/03:00am 26.3 27.6 23.4 84 2.0 NW 22 30 12 16 1009.8 1008.9 0.0
18/02:30am 26.3 28.8 23.2 83 2.1 WNW 15 20 8 11 1009.8 1008.9 0.0
18/02:00am 26.5 28.9 23.6 84 2.0 WNW 17 20 9 11 1009.6 1008.7 0.0
18/01:30am 26.8 29.4 23.9 84 2.0 WNW 17 22 9 12 1009.7 1008.8 0.0
18/01:00am 26.8 28.9 24.1 85 1.9 WNW 20 24 11 13 1009.5 1008.6 0.0
18/12:30am 26.9 29.1 24.2 85 1.9 WNW 20 24 11 13 1009.3 1008.4 0.0
18/12:00am 27.6 29.4 24.2 82 2.4 NW 22 30 12 16 1009.6 1008.7 0.0
 
Date/Time
WST
Temp
°C
App
Temp
°C
Dew
Point
°C
Rel
Hum
%
Delta-T
°C
Wind Press
QNH
hPa
Press
MSL
hPa
Rain since
9am
mm
Dir  Spd
km/h
Gust
km/h
Spd
kts
Gust
kts
17/11:30pm 28.3 31.3 23.4 75 3.4 W 13 17 7 9 1009.9 1009.0 0.0
17/11:00pm 28.9 32.4 23.6 73 3.7 WNW 11 13 6 7 1010.2 1009.3 0.0
17/10:30pm 29.0 32.0 23.4 72 3.9 WNW 13 13 7 7 1010.1 1009.2 0.0
17/10:00pm 28.8 33.0 24.1 76 3.3 WNW 9 11 5 6 1010.5 1009.6 0.0
17/09:30pm 28.4 34.4 24.2 78 2.9 CALM 0 0 0 0 1010.6 1009.7 0.0
17/09:00pm 28.5 34.9 24.9 81 2.5 CALM 0 0 0 0 1010.8 1009.9 0.0
17/08:30pm 28.8 33.7 24.4 77 3.1 SW 6 7 3 4 1010.3 1009.4 0.0
17/08:00pm 29.0 33.6 24.1 75 3.4 SSW 7 7 4 4 1010.3 1009.4 0.0
17/07:30pm 29.4 33.8 23.8 72 3.9 S 7 9 4 5 1009.9 1009.0 0.0
17/07:00pm 29.7 34.0 23.6 69 4.2 SSE 7 9 4 5 1009.7 1008.8 0.0

Other Formats:

Comma delimited format used in spreadsheet applications
http://www.bom.gov.au/fwo/IDW60801/IDW60801.94206.axf

JavaScript Object Notation format (JSON) in row-major order
http://www.bom.gov.au/fwo/IDW60801/IDW60801.94206.json